Time;durP1;ratioP1;P1;durP2;ratioP2;P2;SDS_P1;SDS_P2;PMS_P1;PMS_P2;Temp;Humidity;BMP_temperature;BMP_pressure;BME280_temperature;BME280_humidity;BME280_pressure;Samples;Min_cycle;Max_cycle;Signal;HPM_P1;HPM_P2
2023/02/22 00:00:41;;;;;;;7.50;4.93;;;;;;;8.35;75.46;100347.94;5051830;28;20025;-70
2023/02/22 00:03:14;;;;;;;7.80;5.30;;;;;;;8.32;75.45;100352.06;5051892;28;20037;-69
2023/02/22 00:05:43;;;;;;;7.70;4.97;;;;;;;7.96;75.49;100301.63;5051605;28;20068;-74
2023/02/22 00:08:10;;;;;;;7.32;5.03;;;;;;;8.14;75.59;100345.31;5051109;28;20090;-73
2023/02/22 00:10:37;;;;;;;9.43;5.30;;;;;;;7.93;76.61;100352.94;5051678;28;20025;-74
2023/02/22 00:13:06;;;;;;;9.90;4.93;;;;;;;7.82;76.87;100349.84;5051703;28;20052;-71
2023/02/22 00:15:32;;;;;;;8.35;4.60;;;;;;;7.74;77.21;100346.94;5000394;28;20038;-72
2023/02/22 00:17:58;;;;;;;9.98;5.43;;;;;;;7.69;77.28;100343.28;5015812;28;20156;-71
2023/02/22 00:20:23;;;;;;;9.40;5.47;;;;;;;7.73;77.25;100352.88;5051378;28;20609;-69
2023/02/22 00:22:52;;;;;;;9.40;6.15;;;;;;;7.68;77.16;100349.22;5051181;28;20108;-68
2023/02/22 00:25:23;;;;;;;10.00;6.00;;;;;;;7.64;77.10;100351.56;5051296;28;20035;-71
2023/02/22 00:27:51;;;;;;;8.30;5.82;;;;;;;7.52;77.71;100355.31;5051386;28;20032;-72
2023/02/22 00:30:23;;;;;;;9.23;6.10;;;;;;;6.89;78.59;100296.72;5051322;28;20031;-72
2023/02/22 00:32:49;;;;;;;10.40;6.13;;;;;;;6.83;79.72;100352.84;5033265;28;20187;-69
2023/02/22 00:35:17;;;;;;;11.35;6.18;;;;;;;6.67;80.48;100356.34;5051210;28;20075;-70
2023/02/22 00:37:46;;;;;;;7.95;5.80;;;;;;;6.61;81.19;100364.59;5051077;28;20124;-69
2023/02/22 00:40:16;;;;;;;12.32;6.65;;;;;;;6.63;81.24;100346.72;5051105;28;20082;-68
2023/02/22 00:42:41;;;;;;;;;;;;;;;6.64;80.50;100351.94;5051520;28;20080;-71
2023/02/22 00:45:07;;;;;;;10.32;6.78;;;;;;;6.58;81.20;100348.16;5051134;28;20350;-71
2023/02/22 00:47:33;;;;;;;13.10;7.60;;;;;;;6.41;82.75;100348.16;5051159;28;20433;-70
2023/02/22 00:49:59;;;;;;;12.05;8.00;;;;;;;6.04;83.47;100305.22;5050786;28;20033;-68
2023/02/22 00:52:28;;;;;;;12.48;8.32;;;;;;;6.18;84.38;100356.34;5050614;28;20025;-69
2023/02/22 00:54:54;;;;;;;15.10;8.70;;;;;;;6.21;84.87;100359.97;5051076;28;20029;-74
2023/02/22 00:57:20;;;;;;;15.25;8.93;;;;;;;6.19;84.63;100358.97;5050293;28;20673;-69
2023/02/22 00:59:46;;;;;;;13.15;8.30;;;;;;;6.27;84.39;100361.97;5050875;28;20029;-69
2023/02/22 01:02:12;;;;;;;14.45;8.48;;;;;;;6.44;82.61;100353.47;5050763;28;20039;-69
2023/02/22 01:04:37;;;;;;;12.63;8.43;;;;;;;6.31;82.20;100325.44;5050433;28;20033;-74
2023/02/22 01:07:03;;;;;;;12.27;8.02;;;;;;;6.52;82.37;100364.13;5050785;28;20036;-70
2023/02/22 01:09:28;;;;;;;13.57;8.25;;;;;;;6.09;82.28;100303.81;5050818;28;20387;-69
2023/02/22 01:11:54;;;;;;;13.45;8.07;;;;;;;5.97;83.57;100349.28;5050752;28;20079;-68
2023/02/22 01:14:22;;;;;;;12.60;8.10;;;;;;;5.81;85.27;100353.53;5050089;28;20025;-70
2023/02/22 01:16:49;;;;;;;12.90;7.65;;;;;;;5.71;86.15;100350.41;5050099;28;20483;-72
2023/02/22 01:19:15;;;;;;;11.27;7.88;;;;;;;5.52;85.83;100339.16;5050376;28;20067;-71
2023/02/22 01:21:41;;;;;;;12.18;8.23;;;;;;;5.51;85.96;100360.44;5050246;28;20048;-69
2023/02/22 01:24:08;;;;;;;13.27;8.52;;;;;;;5.34;86.25;100333.91;5050431;28;20082;-70
2023/02/22 01:26:34;;;;;;;13.50;7.97;;;;;;;5.44;87.04;100348.09;5050585;28;20079;-69
2023/02/22 01:29:01;;;;;;;16.58;9.13;;;;;;;5.30;87.98;100357.56;5050446;28;20029;-71
2023/02/22 01:31:26;;;;;;;14.55;8.95;;;;;;;5.31;88.19;100360.22;5050679;28;20375;-68
2023/02/22 01:33:52;;;;;;;13.20;9.32;;;;;;;5.43;87.97;100349.78;5050123;28;20029;-71
2023/02/22 01:36:18;;;;;;;15.50;9.23;;;;;;;5.43;86.69;100370.28;5029714;28;20052;-70
2023/02/22 01:38:44;;;;;;;13.13;9.30;;;;;;;5.27;87.51;100347.13;5050175;28;20036;-69
2023/02/22 01:41:11;;;;;;;16.55;10.15;;;;;;;5.14;88.86;100320.00;5050377;28;20057;-72
2023/02/22 01:43:36;;;;;;;15.73;10.20;;;;;;;5.28;90.57;100344.69;5050433;28;20059;-73
2023/02/22 01:46:19;;;;;;;16.77;10.93;;;;;;;5.33;90.79;100361.19;5050259;28;20029;-69
2023/02/22 01:48:51;;;;;;;15.73;11.07;;;;;;;5.28;90.68;100347.25;5050419;28;20031;-73
2023/02/22 01:51:28;;;;;;;16.25;10.80;;;;;;;5.31;90.22;100354.22;5029154;28;20029;-69
2023/02/22 01:54:03;;;;;;;15.57;10.15;;;;;;;5.13;91.61;100348.94;5049741;28;20028;-73
2023/02/22 01:56:33;;;;;;;19.27;9.80;;;;;;;4.95;93.02;100341.09;5050033;28;20033;-68
2023/02/22 01:59:05;;;;;;;14.13;10.10;;;;;;;4.99;93.88;100355.81;5031031;28;20048;-69
2023/02/22 02:01:31;;;;;;;17.00;9.82;;;;;;;4.98;94.44;100360.03;5050333;28;20510;-70
2023/02/22 02:04:00;;;;;;;15.77;10.63;;;;;;;4.97;95.39;100355.75;5050372;28;20035;-68
2023/02/22 02:06:30;;;;;;;15.07;10.38;;;;;;;5.07;nan;100358.81;5049769;28;20085;-71
2023/02/22 02:09:04;;;;;;;15.65;10.30;;;;;;;5.06;95.92;100352.81;5031004;28;20033;-68
2023/02/22 02:11:31;;;;;;;16.52;10.05;;;;;;;4.80;97.17;100315.53;5050052;28;20088;-69
2023/02/22 02:13:57;;;;;;;15.30;10.07;;;;;;;5.00;97.57;100353.34;5050207;28;20056;-70
2023/02/22 02:16:26;;;;;;;15.75;9.93;;;;;;;5.12;97.43;100358.28;5049637;28;20029;-71
2023/02/22 02:18:53;;;;;;;16.35;10.73;;;;;;;5.18;97.40;100358.66;5050142;28;20047;-68
2023/02/22 02:21:27;;;;;;;16.90;10.40;;;;;;;5.23;96.83;100355.44;5050064;28;20147;-71
2023/02/22 02:24:08;;;;;;;16.80;11.05;;;;;;;5.21;96.27;100354.47;5049285;28;20032;-69
2023/02/22 02:26:52;;;;;;;17.38;10.52;;;;;;;5.17;96.40;100349.19;5050011;28;20488;-71
2023/02/22 02:29:36;;;;;;;17.65;10.98;;;;;;;5.10;97.15;100352.19;5049610;28;20021;-73
2023/02/22 02:32:04;;;;;;;14.75;10.20;;;;;;;5.23;97.82;100363.13;5050837;28;20123;-75
2023/02/22 02:34:51;;;;;;;16.88;10.85;;;;;;;5.32;97.46;100358.50;5053372;28;20045;-69
2023/02/22 02:37:36;;;;;;;15.55;10.60;;;;;;;5.28;97.08;100359.16;5053344;28;20060;-68
2023/02/22 02:40:18;;;;;;;16.48;10.68;;;;;;;5.07;96.87;100323.00;5037983;28;20423;-68
2023/02/22 02:42:58;;;;;;;17.00;10.43;;;;;;;5.32;96.67;100363.63;5053308;28;20044;-74
2023/02/22 02:45:35;;;;;;;17.30;10.10;;;;;;;5.27;96.90;100363.41;5053403;28;20140;-69
2023/02/22 02:48:05;;;;;;;17.88;10.55;;;;;;;5.27;97.00;100377.84;5053253;28;20490;-71
2023/02/22 02:50:40;;;;;;;16.38;10.80;;;;;;;5.28;96.84;100364.28;5053002;28;20506;-68
2023/02/22 02:53:08;;;;;;;16.80;10.10;;;;;;;5.30;96.71;100370.38;5053184;28;20027;-70
2023/02/22 02:55:35;;;;;;;24.13;11.23;;;;;;;5.34;96.04;100365.47;5052973;28;20025;-73
2023/02/22 02:58:06;;;;;;;16.40;10.75;;;;;;;5.39;95.73;100365.75;5053160;28;20033;-71
2023/02/22 03:00:40;;;;;;;22.80;10.90;;;;;;;5.46;95.25;100362.75;5053118;28;20021;-68
2023/02/22 03:03:24;;;;;;;17.25;10.68;;;;;;;5.45;95.28;100360.97;5053957;28;20021;-71
2023/02/22 03:06:30;;;;;;;16.48;10.65;;;;;;;5.49;94.39;100360.34;5059035;28;20111;-70
2023/02/22 03:09:12;;;;;;;16.70;11.32;;;;;;;5.38;93.19;100333.25;5042694;28;20112;-71
2023/02/22 03:12:04;;;;;;;16.42;11.05;;;;;;;5.61;92.46;100360.16;5052957;28;20029;-71
2023/02/22 03:15:05;;;;;;;18.38;11.52;;;;;;;5.62;91.94;100363.56;5053032;28;20027;-69
2023/02/22 03:17:49;;;;;;;19.13;11.73;;;;;;;5.57;91.46;100365.00;5052276;28;20033;-71
2023/02/22 03:20:30;;;;;;;17.33;11.52;;;;;;;5.50;91.66;100362.09;5054746;28;20511;-69
2023/02/22 03:23:24;;;;;;;20.23;12.95;;;;;;;5.48;91.99;100373.97;5052461;28;20040;-73
2023/02/22 03:25:58;;;;;;;21.13;13.38;;;;;;;5.41;92.20;100376.97;5052507;28;20427;-71
2023/02/22 03:28:25;;;;;;;20.02;12.18;;;;;;;5.51;91.83;100380.94;5052168;28;20567;-68
2023/02/22 03:30:58;;;;;;;17.10;11.35;;;;;;;5.57;90.56;100377.81;5033737;28;20041;-69
2023/02/22 03:33:32;;;;;;;16.17;12.00;;;;;;;5.55;90.24;100387.97;5052308;28;20024;-71
2023/02/22 03:36:20;;;;;;;17.77;11.70;;;;;;;5.53;90.96;100370.78;5052196;28;20140;-71
2023/02/22 03:38:48;;;;;;;18.25;12.25;;;;;;;5.56;91.34;100376.94;5052341;28;20025;-69
2023/02/22 03:41:17;;;;;;;16.10;11.65;;;;;;;5.62;91.21;100392.66;5052512;28;20040;-69
2023/02/22 03:43:49;;;;;;;18.15;10.88;;;;;;;5.67;90.40;100396.34;5051074;28;20032;-72
2023/02/22 03:46:15;;;;;;;19.70;12.32;;;;;;;5.62;90.64;100379.84;5033093;28;20036;-69
2023/02/22 03:48:53;;;;;;;19.00;12.70;;;;;;;5.69;91.02;100393.00;5052030;28;20040;-69
2023/02/22 03:51:19;;;;;;;18.38;12.30;;;;;;;5.70;90.78;100394.75;5052083;28;20036;-70
2023/02/22 03:53:46;;;;;;;21.13;12.38;;;;;;;5.65;90.75;100386.81;5052107;28;20032;-71
2023/02/22 03:56:19;;;;;;;17.95;11.95;;;;;;;5.74;90.33;100397.56;5051943;28;20478;-70
2023/02/22 03:58:49;;;;;;;19.55;12.23;;;;;;;5.79;90.32;100400.38;5051986;28;20021;-73
2023/02/22 04:01:15;;;;;;;18.83;11.05;;;;;;;5.82;90.20;100395.44;5051840;28;20029;-75
2023/02/22 04:03:41;;;;;;;18.98;11.65;;;;;;;5.58;89.77;100352.31;5051636;28;20029;-69
2023/02/22 04:06:08;;;;;;;18.05;11.48;;;;;;;5.80;89.67;100387.66;5051723;28;20457;-69
2023/02/22 04:08:34;;;;;;;16.65;11.13;;;;;;;5.82;89.92;100395.44;5051889;28;20108;-72
2023/02/22 04:11:00;;;;;;;16.92;11.43;;;;;;;5.90;89.55;100409.53;5051704;28;20182;-72
2023/02/22 04:13:26;;;;;;;18.23;11.88;;;;;;;5.92;89.28;100407.03;5051514;28;20032;-71
2023/02/22 04:15:52;;;;;;;21.77;12.55;;;;;;;5.88;88.92;100398.34;5051571;28;20025;-68
2023/02/22 04:18:17;;;;;;;20.30;12.48;;;;;;;5.66;89.32;100407.38;5051626;28;20387;-69
2023/02/22 04:20:43;;;;;;;21.48;14.07;;;;;;;5.37;90.04;100390.41;5048255;28;20037;-69
2023/02/22 04:23:09;;;;;;;20.58;13.90;;;;;;;5.12;91.12;100394.13;5031430;28;20435;-69
2023/02/22 04:25:35;;;;;;;23.38;14.35;;;;;;;4.95;92.07;100410.16;5031423;28;20034;-73
2023/02/22 04:28:01;;;;;;;23.23;15.15;;;;;;;4.88;92.92;100413.16;5031246;28;20026;-69
2023/02/22 04:30:28;;;;;;;20.27;14.07;;;;;;;5.00;93.05;100409.63;5031184;28;20112;-69
2023/02/22 04:32:55;;;;;;;20.77;13.95;;;;;;;4.99;93.41;100404.44;5031375;28;20061;-69
2023/02/22 04:35:20;;;;;;;20.33;13.38;;;;;;;4.95;94.17;100410.16;5031268;28;20052;-70
2023/02/22 04:37:46;;;;;;;18.08;11.05;;;;;;;4.54;96.71;100399.25;5031191;28;20037;-68
2023/02/22 04:40:11;;;;;;;17.00;10.63;;;;;;;4.33;100.00;100407.38;5027765;28;20415;-67
2023/02/22 04:42:38;;;;;;;20.05;9.48;;;;;;;4.40;100.00;100407.75;5030987;28;20033;-68
2023/02/22 04:45:06;;;;;;;16.33;9.38;;;;;;;4.48;100.00;100412.53;5031196;28;20033;-67
2023/02/22 04:47:33;;;;;;;13.10;8.68;;;;;;;4.47;100.00;100394.56;5030969;28;20103;-70
2023/02/22 04:49:59;;;;;;;18.90;9.88;;;;;;;4.18;100.00;100351.09;5030821;28;20091;-71
2023/02/22 04:52:26;;;;;;;14.43;9.25;;;;;;;4.46;99.91;100391.13;5030785;28;20021;-69
2023/02/22 04:54:51;;;;;;;14.15;8.20;;;;;;;4.55;98.91;100393.34;5030361;28;20060;-71
2023/02/22 04:57:17;;;;;;;15.43;8.30;;;;;;;4.55;98.47;100395.91;5030727;28;20053;-71
2023/02/22 04:59:42;;;;;;;17.38;8.65;;;;;;;4.49;98.04;100395.53;5030846;28;20030;-68
2023/02/22 05:02:08;;;;;;;18.10;8.07;;;;;;;4.44;98.05;100363.72;5043939;28;20112;-68
2023/02/22 05:04:35;;;;;;;12.88;8.15;;;;;;;4.86;96.67;100406.28;5050769;28;20025;-69
2023/02/22 05:07:00;;;;;;;17.48;9.43;;;;;;;5.02;94.55;100412.28;5050665;28;20064;-69
2023/02/22 05:09:25;;;;;;;16.67;10.45;;;;;;;5.10;93.73;100412.75;5050358;28;20451;-68
2023/02/22 05:11:51;;;;;;;19.45;12.55;;;;;;;5.16;94.75;100413.09;5041230;28;20096;-71
2023/02/22 05:14:16;;;;;;;24.10;12.93;;;;;;;5.13;95.74;100400.09;5039006;28;20033;-69
2023/02/22 05:16:43;;;;;;;23.15;13.20;;;;;;;4.97;96.18;100370.19;5044031;28;20032;-71
2023/02/22 05:19:08;;;;;;;21.95;14.65;;;;;;;4.92;96.08;100375.06;5043854;28;20399;-72
2023/02/22 05:21:34;;;;;;;23.77;15.80;;;;;;;5.08;96.02;100412.63;5039833;28;20040;-73
2023/02/22 05:23:59;;;;;;;29.25;15.75;;;;;;;5.13;96.34;100418.03;5039613;28;20079;-73
2023/02/22 05:26:24;;;;;;;21.75;15.32;;;;;;;5.16;95.72;100421.66;5040761;28;20074;-68
2023/02/22 05:28:50;;;;;;;22.33;14.10;;;;;;;5.19;96.08;100432.03;5039362;28;20389;-72
2023/02/22 05:31:16;;;;;;;22.83;15.25;;;;;;;5.11;96.43;100417.03;4994269;28;20047;-69
2023/02/22 05:33:42;;;;;;;25.83;14.38;;;;;;;5.08;97.50;100427.13;5030353;28;20045;-68
2023/02/22 05:36:08;;;;;;;20.65;14.10;;;;;;;5.06;97.56;100427.03;5050471;28;20032;-69
2023/02/22 05:38:35;;;;;;;21.65;15.05;;;;;;;5.05;97.68;100432.03;5050361;28;20033;-68
2023/02/22 05:41:00;;;;;;;23.77;15.30;;;;;;;4.96;98.02;100438.41;5050335;28;20074;-68
2023/02/22 05:43:27;;;;;;;22.40;14.20;;;;;;;4.70;98.34;100399.34;5028625;28;20474;-68
2023/02/22 05:45:52;;;;;;;20.77;14.57;;;;;;;4.89;98.70;100433.72;5049788;28;20403;-72
2023/02/22 05:48:18;;;;;;;26.00;15.20;;;;;;;4.95;98.41;100451.09;5050526;28;20025;-71
2023/02/22 05:50:43;;;;;;;19.85;14.43;;;;;;;4.94;98.73;100450.19;5050150;28;20116;-69
2023/02/22 05:53:09;;;;;;;25.52;15.13;;;;;;;4.75;99.17;100443.13;5050388;28;20422;-69
2023/02/22 05:55:35;;;;;;;27.50;16.25;;;;;;;4.86;99.92;100454.88;5050003;28;20394;-71
2023/02/22 05:58:04;;;;;;;24.63;15.40;;;;;;;4.87;100.00;100458.31;5032441;28;20021;-71
2023/02/22 06:00:30;;;;;;;27.95;16.17;;;;;;;4.88;100.00;100454.97;5050308;28;20025;-69
2023/02/22 06:03:01;;;;;;;20.35;15.57;;;;;;;4.92;100.00;100461.13;5050248;28;20027;-69
2023/02/22 06:05:28;;;;;;;23.85;15.90;;;;;;;4.97;100.00;100463.19;5050213;28;20103;-70
2023/02/22 06:07:54;;;;;;;24.40;15.65;;;;;;;4.98;100.00;100461.50;5052730;28;20021;-68
2023/02/22 06:10:19;;;;;;;22.40;14.98;;;;;;;5.08;100.00;100473.16;5018517;28;20529;-74
2023/02/22 06:12:46;;;;;;;23.58;16.23;;;;;;;5.16;100.00;100477.06;5054031;28;20032;-69
2023/02/22 06:15:14;;;;;;;22.95;15.98;;;;;;;5.26;100.00;100474.25;5054125;28;20079;-71
2023/02/22 06:17:40;;;;;;;33.92;16.25;;;;;;;5.26;100.00;100479.38;5033679;28;20033;-71
2023/02/22 06:20:08;;;;;;;21.45;12.77;;;;;;;5.33;100.00;100476.38;5053153;28;20070;-74
2023/02/22 06:22:33;;;;;;;21.00;13.50;;;;;;;5.19;100.00;100461.88;5049665;28;20102;-71
2023/02/22 06:25:02;;;;;;;20.92;12.55;;;;;;;5.34;100.00;100477.25;5044721;28;20021;-72
2023/02/22 06:27:31;;;;;;;19.43;13.30;;;;;;;5.34;100.00;100475.56;5040352;28;20049;-71
2023/02/22 06:29:57;;;;;;;18.45;12.98;;;;;;;5.51;100.00;100473.13;5049082;28;20459;-73
2023/02/22 06:32:23;;;;;;;22.85;13.55;;;;;;;5.62;100.00;100477.16;5041078;28;20033;-71
2023/02/22 06:34:48;;;;;;;18.02;12.55;;;;;;;5.67;100.00;100472.31;5047777;28;20503;-70
2023/02/22 06:37:14;;;;;;;21.08;11.75;;;;;;;5.70;100.00;100479.28;5046644;28;20049;-71
2023/02/22 06:39:39;;;;;;;16.88;11.45;;;;;;;5.71;100.00;100463.09;5042703;28;20060;-71
2023/02/22 06:42:05;;;;;;;18.73;13.02;;;;;;;5.84;100.00;100491.19;5043891;28;20083;-71
2023/02/22 06:44:30;;;;;;;17.80;12.77;;;;;;;5.87;100.00;100483.69;5041514;28;20018;-71
2023/02/22 06:46:55;;;;;;;18.17;12.07;;;;;;;5.95;100.00;100476.41;5044340;28;20378;-70
2023/02/22 06:49:21;;;;;;;18.60;12.50;;;;;;;6.03;100.00;100464.94;5035197;28;20031;-76
2023/02/22 06:51:47;;;;;;;22.08;11.50;;;;;;;6.17;100.00;100477.63;5017054;28;20044;-71
2023/02/22 06:54:13;;;;;;;16.60;11.65;;;;;;;6.22;100.00;100469.41;5052822;28;20037;-69
2023/02/22 06:56:38;;;;;;;16.20;11.10;;;;;;;6.32;100.00;100476.78;5050849;28;20029;-75
2023/02/22 06:59:04;;;;;;;18.70;11.93;;;;;;;6.41;100.00;100475.53;5033232;28;20044;-72
2023/02/22 07:01:29;;;;;;;18.02;11.85;;;;;;;6.31;100.00;100446.81;5048877;28;20032;-74
2023/02/22 07:03:55;;;;;;;18.33;11.00;;;;;;;6.60;100.00;100477.38;5033025;28;20056;-75
2023/02/22 07:06:21;;;;;;;18.65;12.35;;;;;;;6.70;100.00;100477.03;4997376;28;20420;-72
2023/02/22 07:08:47;;;;;;;22.20;15.07;;;;;;;6.75;100.00;100490.13;5032668;28;20064;-73
2023/02/22 07:11:13;;;;;;;18.75;12.43;;;;;;;6.72;100.00;100477.16;5032899;28;20028;-72
2023/02/22 07:13:38;;;;;;;22.10;13.43;;;;;;;6.86;100.00;100483.88;5032804;28;20025;-69
2023/02/22 07:16:04;;;;;;;22.85;14.05;;;;;;;6.96;100.00;100474.97;5032552;28;20086;-73
2023/02/22 07:18:30;;;;;;;15.13;10.30;;;;;;;6.88;100.00;100458.28;5032372;28;20048;-76
2023/02/22 07:20:57;;;;;;;15.93;8.32;;;;;;;7.05;100.00;100461.72;5032425;28;20025;-75
2023/02/22 07:23:23;;;;;;;11.63;8.82;;;;;;;7.15;100.00;100473.34;5014787;28;20165;-68
2023/02/22 07:25:48;;;;;;;11.82;8.88;;;;;;;7.16;100.00;100467.41;5032792;28;20498;-69
2023/02/22 07:28:14;;;;;;;12.30;9.13;;;;;;;7.39;100.00;100473.69;5032636;28;20448;-68
2023/02/22 07:30:40;;;;;;;15.45;8.75;;;;;;;7.66;100.00;100460.44;5035756;28;20798;-68
2023/02/22 07:33:07;;;;;;;13.10;8.40;;;;;;;7.96;99.24;100457.56;5032847;28;20044;-74
2023/02/22 07:35:45;;;;;;;12.23;8.75;;;;;;;8.23;97.61;100453.72;5032371;28;20049;-69
2023/02/22 07:38:12;;;;;;;12.98;8.70;;;;;;;8.46;96.09;100458.16;5036817;28;20064;-71
2023/02/22 07:40:38;;;;;;;12.77;7.50;;;;;;;8.74;93.21;100457.72;5041748;28;20040;-71
2023/02/22 07:43:13;;;;;;;10.18;7.22;;;;;;;8.88;91.69;100441.22;5032891;28;20603;-71
2023/02/22 07:45:38;;;;;;;10.88;6.80;;;;;;;8.87;91.21;100407.66;5042989;28;20029;-71
2023/02/22 07:48:06;;;;;;;9.93;6.95;;;;;;;9.40;90.52;100459.66;4998952;28;20044;-69
2023/02/22 07:50:33;;;;;;;9.52;6.95;;;;;;;9.56;88.65;100445.72;5049592;28;20568;-70
2023/02/22 07:53:01;;;;;;;9.85;5.88;;;;;;;9.79;87.59;100438.91;5050054;28;20028;-71
2023/02/22 07:55:28;;;;;;;8.80;5.95;;;;;;;10.03;85.98;100441.56;5050046;28;20453;-70
2023/02/22 07:58:14;;;;;;;8.98;5.93;;;;;;;10.29;84.10;100446.84;5007159;28;20565;-70
2023/02/22 08:00:42;;;;;;;9.90;5.88;;;;;;;10.48;82.02;100444.97;5007717;28;20124;-70
2023/02/22 08:03:11;;;;;;;8.75;5.80;;;;;;;10.61;80.06;100442.00;5007632;28;20573;-72
2023/02/22 08:05:38;;;;;;;8.10;5.57;;;;;;;10.74;79.36;100438.19;5008543;28;20053;-72
2023/02/22 08:08:04;;;;;;;8.20;5.45;;;;;;;10.93;78.37;100443.97;5008273;28;20026;-68
2023/02/22 08:10:31;;;;;;;8.13;5.65;;;;;;;11.14;76.87;100433.50;5008469;28;20026;-69
2023/02/22 08:12:57;;;;;;;10.27;6.18;;;;;;;11.24;75.68;100432.13;5012229;28;20049;-68
2023/02/22 08:15:27;;;;;;;10.32;6.53;;;;;;;11.36;74.25;100423.91;5006618;28;20619;-71
2023/02/22 08:17:53;;;;;;;10.85;7.03;;;;;;;11.54;73.55;100421.91;5006859;28;20129;-72
2023/02/22 08:20:19;;;;;;;9.55;6.10;;;;;;;11.69;73.08;100434.47;5007484;28;20154;-73
2023/02/22 08:22:45;;;;;;;11.63;6.32;;;;;;;11.83;72.47;100427.13;5007408;28;20590;-74
2023/02/22 08:25:12;;;;;;;16.30;6.68;;;;;;;11.98;72.28;100426.75;5007582;28;20080;-73
2023/02/22 08:27:38;;;;;;;10.45;6.20;;;;;;;12.04;72.22;100420.91;5007696;28;20523;-72
2023/02/22 08:30:04;;;;;;;9.13;5.35;;;;;;;12.23;70.02;100430.09;5041927;28;20833;-73
2023/02/22 08:32:29;;;;;;;9.45;5.20;;;;;;;12.32;66.20;100427.75;5049197;28;20037;-69
2023/02/22 08:34:55;;;;;;;8.20;4.90;;;;;;;12.45;65.96;100426.41;5049897;28;20110;-69
2023/02/22 08:37:20;;;;;;;10.30;5.22;;;;;;;12.62;66.29;100426.88;5049973;28;20033;-73
2023/02/22 08:39:46;;;;;;;8.48;4.95;;;;;;;12.53;63.46;100411.09;5050210;28;20028;-74
2023/02/22 08:42:11;;;;;;;10.73;5.47;;;;;;;12.70;63.20;100419.34;5049405;28;20025;-70
2023/02/22 08:44:38;;;;;;;9.13;5.85;;;;;;;12.79;63.89;100422.16;5049868;28;20108;-71
2023/02/22 08:47:04;;;;;;;9.02;5.30;;;;;;;12.95;63.28;100411.38;4999250;28;20021;-69
2023/02/22 08:49:30;;;;;;;7.90;4.93;;;;;;;13.11;63.05;100415.25;5049564;28;20039;-74
2023/02/22 08:51:55;;;;;;;10.30;5.90;;;;;;;13.26;63.40;100411.28;5050390;28;20032;-68
2023/02/22 08:54:21;;;;;;;10.60;5.53;;;;;;;13.34;62.97;100414.06;5050051;28;20083;-74
2023/02/22 08:56:47;;;;;;;17.50;5.95;;;;;;;13.46;63.04;100390.16;5047872;28;20079;-70
2023/02/22 08:59:13;;;;;;;11.57;5.78;;;;;;;13.69;62.69;100403.69;5013688;28;20041;-71
2023/02/22 09:01:39;;;;;;;8.38;5.30;;;;;;;13.57;61.93;100362.75;5040486;28;20038;-70
2023/02/22 09:04:04;;;;;;;12.48;5.43;;;;;;;13.81;61.99;100375.44;5030471;28;20065;-68
2023/02/22 09:06:29;;;;;;;7.65;5.25;;;;;;;14.04;60.71;100383.72;5048657;28;20040;-68
2023/02/22 09:08:55;;;;;;;12.20;5.20;;;;;;;14.22;61.34;100391.00;5037089;28;20044;-68
2023/02/22 09:11:20;;;;;;;10.25;5.70;;;;;;;14.44;60.22;100387.97;5030887;28;20063;-73
2023/02/22 09:13:46;;;;;;;10.98;5.40;;;;;;;14.53;59.03;100375.19;5030847;28;20103;-69
2023/02/22 09:16:12;;;;;;;8.70;5.32;;;;;;;14.74;59.28;100395.50;5030535;28;20507;-74
2023/02/22 09:18:37;;;;;;;9.70;5.38;;;;;;;14.86;58.21;100381.88;5030812;28;20108;-71
2023/02/22 09:21:03;;;;;;;9.77;5.82;;;;;;;15.03;57.60;100366.56;5031051;28;20021;-74
2023/02/22 09:23:29;;;;;;;11.93;6.15;;;;;;;15.17;57.51;100366.81;5030300;28;20025;-68
2023/02/22 09:25:54;;;;;;;10.23;5.90;;;;;;;15.12;56.25;100321.66;5030776;28;20060;-70
2023/02/22 09:28:20;;;;;;;10.65;6.55;;;;;;;15.36;55.78;100332.44;5012703;28;20539;-68
2023/02/22 09:30:46;;;;;;;12.30;5.55;;;;;;;15.65;54.07;100360.59;5030260;28;20101;-69
2023/02/22 09:33:14;;;;;;;8.35;4.90;;;;;;;15.79;53.91;100365.16;5030515;28;20146;-68
2023/02/22 09:35:41;;;;;;;8.77;4.95;;;;;;;15.93;52.88;100358.41;5030210;28;20049;-69
2023/02/22 09:38:08;;;;;;;11.52;5.60;;;;;;;15.96;52.24;100354.97;5030756;28;20124;-74
2023/02/22 09:40:43;;;;;;;9.80;4.90;;;;;;;16.16;50.15;100366.53;5030686;28;20080;-75
2023/02/22 09:43:46;;;;;;;9.02;5.07;;;;;;;16.36;50.49;100358.06;5033618;28;20099;-68
2023/02/22 09:46:12;;;;;;;10.05;4.68;;;;;;;16.42;49.34;100358.13;5034758;28;20029;-69
2023/02/22 09:49:23;;;;;;;9.43;4.68;;;;;;;16.53;49.11;100342.63;5034686;28;20476;-72
2023/02/22 09:52:27;;;;;;;8.27;4.47;;;;;;;16.80;47.87;100347.22;4953838;29;20039;-72
2023/02/22 09:55:24;;;;;;;10.85;4.60;;;;;;;16.97;46.14;100337.00;4877901;29;20041;-69
2023/02/22 09:57:54;;;;;;;7.03;4.07;;;;;;;17.00;44.22;100323.09;4822449;29;20080;-75
2023/02/22 10:00:42;;;;;;;6.53;3.72;;;;;;;17.21;42.86;100326.72;4822365;29;20047;-72
2023/02/22 10:03:07;;;;;;;15.45;6.38;;;;;;;17.11;42.59;100291.91;4834719;29;20050;-75
2023/02/22 10:05:40;;;;;;;8.63;5.63;;;;;;;17.42;43.50;100319.06;4840518;29;20517;-71
2023/02/22 10:08:14;;;;;;;9.20;4.85;;;;;;;17.54;42.11;100309.56;4840590;29;20084;-70
2023/02/22 10:10:51;;;;;;;7.25;4.10;;;;;;;17.66;43.09;100314.84;4840711;29;20053;-69
2023/02/22 10:13:27;;;;;;;12.55;8.32;;;;;;;17.77;42.69;100318.38;4840948;29;20041;-69
2023/02/22 10:16:11;;;;;;;9.23;5.60;;;;;;;17.87;40.04;100282.75;4840262;29;20101;-72
2023/02/22 10:19:07;;;;;;;18.45;12.02;;;;;;;18.13;39.36;100313.34;4839756;29;20494;-69
2023/02/22 10:21:54;;;;;;;10.48;5.10;;;;;;;18.25;39.31;100299.44;4803892;29;20062;-71
2023/02/22 10:24:38;;;;;;;7.00;4.18;;;;;;;18.38;39.54;100292.47;4788466;29;20078;-68
2023/02/22 10:27:16;;;;;;;9.77;4.32;;;;;;;18.52;38.55;100293.41;4810668;29;20124;-73
2023/02/22 10:29:51;;;;;;;12.48;5.30;;;;;;;18.43;38.51;100246.34;4863885;29;20104;-72
2023/02/22 10:32:46;;;;;;;10.57;5.57;;;;;;;18.68;36.22;100278.59;4905700;29;20036;-72
2023/02/22 10:35:25;;;;;;;25.42;12.38;;;;;;;18.73;34.03;100278.63;4937085;28;20046;-68
2023/02/22 10:38:00;;;;;;;31.83;16.88;;;;;;;18.71;34.63;100262.03;4971934;28;20046;-75
2023/02/22 10:40:32;;;;;;;12.50;5.00;;;;;;;18.85;34.57;100260.28;4971105;28;20704;-69
2023/02/22 10:43:07;;;;;;;14.98;9.82;;;;;;;19.10;33.67;100265.50;4962629;28;20027;-72
2023/02/22 10:45:35;;;;;;;9.88;4.65;;;;;;;19.13;33.84;100260.28;4962687;28;20125;-71
2023/02/22 10:48:08;;;;;;;6.10;2.70;;;;;;;19.28;32.97;100253.28;4962212;28;20916;-70
2023/02/22 10:50:39;;;;;;;7.57;3.17;;;;;;;19.32;32.93;100258.50;4963200;28;20101;-70
2023/02/22 10:53:05;;;;;;;3.70;2.10;;;;;;;19.30;32.44;100241.94;4962155;28;20062;-72
2023/02/22 10:55:31;;;;;;;5.93;2.28;;;;;;;19.34;33.20;100238.44;4963429;28;20023;-69
2023/02/22 10:58:06;;;;;;;5.40;1.90;;;;;;;19.35;32.73;100236.69;4986651;28;20560;-71
2023/02/22 11:00:36;;;;;;;6.97;2.42;;;;;;;19.25;32.89;100241.06;5050671;28;20021;-68
2023/02/22 11:03:16;;;;;;;3.47;2.13;;;;;;;19.39;32.65;100233.19;5051550;28;20029;-68
2023/02/22 11:05:42;;;;;;;4.35;2.20;;;;;;;19.45;32.76;100229.66;5044797;28;20028;-72
2023/02/22 11:08:13;;;;;;;5.80;2.30;;;;;;;19.50;33.07;100228.78;5052876;28;20025;-71
2023/02/22 11:10:39;;;;;;;4.65;2.38;;;;;;;19.44;33.23;100227.94;5052598;28;20158;-72
2023/02/22 11:13:36;;;;;;;5.15;2.15;;;;;;;19.54;33.26;100234.91;5052801;28;20426;-70
2023/02/22 11:16:41;;;;;;;9.75;6.60;;;;;;;19.67;32.37;100226.09;5044274;28;20503;-69
2023/02/22 11:19:16;;;;;;;5.57;2.20;;;;;;;19.80;32.23;100224.31;5032544;28;20025;-68
2023/02/22 11:21:43;;;;;;;4.07;1.92;;;;;;;19.88;31.29;100229.53;5032781;28;20112;-68
2023/02/22 11:24:14;;;;;;;6.75;2.00;;;;;;;19.85;31.38;100214.69;5032627;28;20033;-70
2023/02/22 11:26:47;;;;;;;4.05;1.80;;;;;;;19.79;31.95;100213.81;5015350;28;20103;-67
2023/02/22 11:29:32;;;;;;;13.98;2.50;;;;;;;19.90;32.63;100216.41;5027140;28;20118;-71
2023/02/22 11:32:02;;;;;;;5.82;2.10;;;;;;;19.64;32.10;100213.03;5036222;28;20531;-68